עמוד ראשי
METAR-TAF:

METAR-TAF

שדות תעופה :

Base Presidente Eduardo Frei Montalva, צ'ילה

קו רוחב: 62-11-28S, קו אורך: 58-59-11W, גובה: 45מטר

תצפית מזג אוויר נוכחית

הדו"ח נערך לפני 1 שעות ו 18דקות, בשעה 03:00 UTC
רוח 14קשר מכיוון דרום-מערב עם משבים עד 25קשר
טמפרטורת -5 צלסיוס
לחות 86%
לחץ 969 hPa
ראות 10 קילומטר או יותר
עננים בינוניים בגובה 1500רגל

METAR: SCRM 210300Z 22014G25KT 9999 BKN015 M05/M07 Q0969 NOSIG

זמן: 00:18 (04:18 UTC)


TAF: חסר

תצפיות ותחזיות מזג אוויר לגבי יותר מ- 4,000 שדות תעופה ברחבי העולם. דוחות METAR ו- TAF.

התחנות הזמינות מסומנות בנקודות צהובות ואדומות על גבי המפה.

העבר את העכבר לנקודה הצבעונית על מנת לראות את שם התחנה.

לאחר מכן, לחץ כדי לראות את תוכן ואת תחזיות מזג האוויר.

כדי לשנות את המפה: לחץ על הכפתורים הירוקים עם הפלוס השחור כדי להתקרב; על הכפתור הירוק עם המקף כדי להתרחק; או בחיצים הירוקים למפות סמוכות.


METAR-TAF: